sensor_id;sensor_type;location;lat;lon;timestamp;P1;durP1;ratioP1;P2;durP2;ratioP2
63499;SDS011;49654;51.142;14.924;2023-08-06T00:01:54;2.60;;;2.38;;
63499;SDS011;49654;51.142;14.924;2023-08-06T00:04:21;3.58;;;2.10;;
63499;SDS011;49654;51.142;14.924;2023-08-06T00:06:49;2.85;;;2.20;;
63499;SDS011;49654;51.142;14.924;2023-08-06T00:09:16;3.25;;;2.10;;
63499;SDS011;49654;51.142;14.924;2023-08-06T00:11:43;3.88;;;2.08;;
63499;SDS011;49654;51.142;14.924;2023-08-06T00:14:12;2.50;;;2.30;;
63499;SDS011;49654;51.142;14.924;2023-08-06T00:16:42;2.60;;;2.10;;
63499;SDS011;49654;51.142;14.924;2023-08-06T00:19:11;2.33;;;2.13;;
63499;SDS011;49654;51.142;14.924;2023-08-06T00:21:38;4.15;;;2.20;;
63499;SDS011;49654;51.142;14.924;2023-08-06T00:24:05;3.03;;;2.20;;
63499;SDS011;49654;51.142;14.924;2023-08-06T00:26:32;3.70;;;2.50;;
63499;SDS011;49654;51.142;14.924;2023-08-06T00:28:59;2.33;;;2.13;;
63499;SDS011;49654;51.142;14.924;2023-08-06T00:31:26;2.55;;;2.35;;
63499;SDS011;49654;51.142;14.924;2023-08-06T00:33:53;3.00;;;2.53;;
63499;SDS011;49654;51.142;14.924;2023-08-06T00:36:21;2.70;;;2.50;;
63499;SDS011;49654;51.142;14.924;2023-08-06T00:38:48;3.88;;;2.75;;
63499;SDS011;49654;51.142;14.924;2023-08-06T00:41:16;3.47;;;2.90;;
63499;SDS011;49654;51.142;14.924;2023-08-06T00:43:43;3.95;;;2.88;;
63499;SDS011;49654;51.142;14.924;2023-08-06T00:46:10;3.22;;;2.92;;
63499;SDS011;49654;51.142;14.924;2023-08-06T00:48:37;3.40;;;3.10;;
63499;SDS011;49654;51.142;14.924;2023-08-06T00:51:04;3.30;;;3.00;;
63499;SDS011;49654;51.142;14.924;2023-08-06T00:53:33;4.25;;;3.40;;
63499;SDS011;49654;51.142;14.924;2023-08-06T00:56:00;3.17;;;2.88;;
63499;SDS011;49654;51.142;14.924;2023-08-06T00:58:28;3.63;;;3.22;;
63499;SDS011;49654;51.142;14.924;2023-08-06T01:00:55;3.92;;;3.20;;
63499;SDS011;49654;51.142;14.924;2023-08-06T01:03:22;3.92;;;3.00;;
63499;SDS011;49654;51.142;14.924;2023-08-06T01:05:49;3.92;;;2.72;;
63499;SDS011;49654;51.142;14.924;2023-08-06T01:08:19;3.50;;;3.17;;
63499;SDS011;49654;51.142;14.924;2023-08-06T01:11:02;3.10;;;2.90;;
63499;SDS011;49654;51.142;14.924;2023-08-06T01:13:41;4.90;;;3.20;;
63499;SDS011;49654;51.142;14.924;2023-08-06T01:16:09;3.22;;;2.90;;
63499;SDS011;49654;51.142;14.924;2023-08-06T01:18:38;4.18;;;3.13;;
63499;SDS011;49654;51.142;14.924;2023-08-06T01:21:08;3.72;;;3.33;;
63499;SDS011;49654;51.142;14.924;2023-08-06T01:23:35;4.40;;;3.58;;
63499;SDS011;49654;51.142;14.924;2023-08-06T01:26:05;4.10;;;3.60;;
63499;SDS011;49654;51.142;14.924;2023-08-06T01:28:41;3.95;;;3.55;;
63499;SDS011;49654;51.142;14.924;2023-08-06T01:31:15;3.53;;;3.22;;
63499;SDS011;49654;51.142;14.924;2023-08-06T01:33:48;4.22;;;3.80;;
63499;SDS011;49654;51.142;14.924;2023-08-06T01:36:18;4.38;;;3.97;;
63499;SDS011;49654;51.142;14.924;2023-08-06T01:38:47;3.70;;;3.20;;
63499;SDS011;49654;51.142;14.924;2023-08-06T01:41:14;4.10;;;3.78;;
63499;SDS011;49654;51.142;14.924;2023-08-06T01:43:41;3.97;;;3.67;;
63499;SDS011;49654;51.142;14.924;2023-08-06T01:46:08;4.05;;;3.58;;
63499;SDS011;49654;51.142;14.924;2023-08-06T01:48:35;3.55;;;3.25;;
63499;SDS011;49654;51.142;14.924;2023-08-06T01:51:03;3.50;;;3.20;;
63499;SDS011;49654;51.142;14.924;2023-08-06T01:53:32;4.10;;;3.70;;
63499;SDS011;49654;51.142;14.924;2023-08-06T01:55:59;3.30;;;3.00;;
63499;SDS011;49654;51.142;14.924;2023-08-06T01:58:26;3.88;;;3.10;;
63499;SDS011;49654;51.142;14.924;2023-08-06T02:00:53;5.13;;;3.25;;
63499;SDS011;49654;51.142;14.924;2023-08-06T02:03:20;3.75;;;3.45;;
63499;SDS011;49654;51.142;14.924;2023-08-06T02:05:47;3.53;;;2.95;;
63499;SDS011;49654;51.142;14.924;2023-08-06T02:08:15;3.67;;;3.35;;
63499;SDS011;49654;51.142;14.924;2023-08-06T02:10:43;3.47;;;3.08;;
63499;SDS011;49654;51.142;14.924;2023-08-06T02:13:11;4.28;;;3.45;;
63499;SDS011;49654;51.142;14.924;2023-08-06T02:15:41;3.53;;;3.20;;
63499;SDS011;49654;51.142;14.924;2023-08-06T02:18:09;4.85;;;3.92;;
63499;SDS011;49654;51.142;14.924;2023-08-06T02:20:36;4.53;;;3.95;;
63499;SDS011;49654;51.142;14.924;2023-08-06T02:23:03;4.57;;;3.90;;
63499;SDS011;49654;51.142;14.924;2023-08-06T02:25:30;11.82;;;4.88;;
63499;SDS011;49654;51.142;14.924;2023-08-06T02:27:59;5.45;;;4.47;;
63499;SDS011;49654;51.142;14.924;2023-08-06T02:30:26;6.10;;;4.30;;
63499;SDS011;49654;51.142;14.924;2023-08-06T02:32:53;4.60;;;4.20;;
63499;SDS011;49654;51.142;14.924;2023-08-06T02:35:20;4.22;;;3.92;;
63499;SDS011;49654;51.142;14.924;2023-08-06T02:37:47;4.07;;;3.72;;
63499;SDS011;49654;51.142;14.924;2023-08-06T02:40:14;4.32;;;4.00;;
63499;SDS011;49654;51.142;14.924;2023-08-06T02:42:41;4.00;;;3.70;;
63499;SDS011;49654;51.142;14.924;2023-08-06T02:45:10;3.60;;;3.30;;
63499;SDS011;49654;51.142;14.924;2023-08-06T02:47:37;4.38;;;3.90;;
63499;SDS011;49654;51.142;14.924;2023-08-06T02:50:05;3.30;;;3.03;;
63499;SDS011;49654;51.142;14.924;2023-08-06T02:52:32;5.85;;;2.90;;
63499;SDS011;49654;51.142;14.924;2023-08-06T02:54:59;2.90;;;2.70;;
63499;SDS011;49654;51.142;14.924;2023-08-06T02:57:26;3.33;;;3.03;;
63499;SDS011;49654;51.142;14.924;2023-08-06T02:59:53;3.40;;;3.10;;
63499;SDS011;49654;51.142;14.924;2023-08-06T03:02:22;3.22;;;2.85;;
63499;SDS011;49654;51.142;14.924;2023-08-06T03:04:49;2.63;;;2.42;;
63499;SDS011;49654;51.142;14.924;2023-08-06T03:07:16;2.50;;;2.30;;
63499;SDS011;49654;51.142;14.924;2023-08-06T03:09:43;2.92;;;2.67;;
63499;SDS011;49654;51.142;14.924;2023-08-06T03:12:10;2.40;;;2.20;;
63499;SDS011;49654;51.142;14.924;2023-08-06T03:14:37;3.90;;;2.70;;
63499;SDS011;49654;51.142;14.924;2023-08-06T03:17:05;2.60;;;2.40;;
63499;SDS011;49654;51.142;14.924;2023-08-06T03:19:33;2.70;;;2.50;;
63499;SDS011;49654;51.142;14.924;2023-08-06T03:22:00;2.88;;;2.67;;
63499;SDS011;49654;51.142;14.924;2023-08-06T03:24:27;2.88;;;2.67;;
63499;SDS011;49654;51.142;14.924;2023-08-06T03:26:54;3.05;;;2.75;;
63499;SDS011;49654;51.142;14.924;2023-08-06T03:29:21;3.67;;;2.92;;
63499;SDS011;49654;51.142;14.924;2023-08-06T03:31:48;3.38;;;2.55;;
63499;SDS011;49654;51.142;14.924;2023-08-06T03:34:15;2.80;;;2.60;;
63499;SDS011;49654;51.142;14.924;2023-08-06T03:36:43;3.53;;;3.20;;
63499;SDS011;49654;51.142;14.924;2023-08-06T03:39:10;3.13;;;2.92;;
63499;SDS011;49654;51.142;14.924;2023-08-06T03:41:39;4.85;;;3.15;;
63499;SDS011;49654;51.142;14.924;2023-08-06T03:44:06;4.28;;;2.90;;
63499;SDS011;49654;51.142;14.924;2023-08-06T03:46:33;2.88;;;2.67;;
63499;SDS011;49654;51.142;14.924;2023-08-06T03:49:00;2.90;;;2.70;;
63499;SDS011;49654;51.142;14.924;2023-08-06T03:51:27;3.00;;;2.80;;
63499;SDS011;49654;51.142;14.924;2023-08-06T03:53:56;3.17;;;2.88;;
63499;SDS011;49654;51.142;14.924;2023-08-06T03:56:23;3.53;;;2.88;;
63499;SDS011;49654;51.142;14.924;2023-08-06T03:58:50;2.78;;;2.58;;
63499;SDS011;49654;51.142;14.924;2023-08-06T04:01:17;2.80;;;2.53;;
63499;SDS011;49654;51.142;14.924;2023-08-06T04:03:44;3.40;;;2.55;;
63499;SDS011;49654;51.142;14.924;2023-08-06T04:06:11;2.88;;;2.67;;
63499;SDS011;49654;51.142;14.924;2023-08-06T04:08:38;2.67;;;2.47;;
63499;SDS011;49654;51.142;14.924;2023-08-06T04:11:06;2.70;;;2.50;;
63499;SDS011;49654;51.142;14.924;2023-08-06T04:13:33;2.70;;;2.50;;
63499;SDS011;49654;51.142;14.924;2023-08-06T04:16:01;3.10;;;2.13;;
63499;SDS011;49654;51.142;14.924;2023-08-06T04:18:28;2.22;;;2.08;;
63499;SDS011;49654;51.142;14.924;2023-08-06T04:20:55;2.38;;;2.17;;
63499;SDS011;49654;51.142;14.924;2023-08-06T04:23:23;2.20;;;2.00;;
63499;SDS011;49654;51.142;14.924;2023-08-06T04:25:50;2.50;;;2.20;;
63499;SDS011;49654;51.142;14.924;2023-08-06T04:28:19;1.95;;;1.85;;
63499;SDS011;49654;51.142;14.924;2023-08-06T04:30:46;3.50;;;2.67;;
63499;SDS011;49654;51.142;14.924;2023-08-06T04:33:13;2.80;;;2.00;;
63499;SDS011;49654;51.142;14.924;2023-08-06T04:35:40;2.15;;;1.98;;
63499;SDS011;49654;51.142;14.924;2023-08-06T04:38:07;2.10;;;2.00;;
63499;SDS011;49654;51.142;14.924;2023-08-06T04:40:35;3.63;;;2.17;;
63499;SDS011;49654;51.142;14.924;2023-08-06T04:43:02;2.30;;;2.10;;
63499;SDS011;49654;51.142;14.924;2023-08-06T04:45:31;2.40;;;2.20;;
63499;SDS011;49654;51.142;14.924;2023-08-06T04:47:58;2.30;;;2.10;;
63499;SDS011;49654;51.142;14.924;2023-08-06T04:50:25;1.83;;;1.70;;
63499;SDS011;49654;51.142;14.924;2023-08-06T04:52:52;1.63;;;1.52;;
63499;SDS011;49654;51.142;14.924;2023-08-06T04:55:19;1.95;;;1.73;;
63499;SDS011;49654;51.142;14.924;2023-08-06T04:57:46;2.70;;;1.65;;
63499;SDS011;49654;51.142;14.924;2023-08-06T05:00:13;1.55;;;1.23;;
63499;SDS011;49654;51.142;14.924;2023-08-06T05:02:41;1.50;;;1.40;;
63499;SDS011;49654;51.142;14.924;2023-08-06T05:05:08;1.35;;;1.25;;
63499;SDS011;49654;51.142;14.924;2023-08-06T05:07:35;1.40;;;1.30;;
63499;SDS011;49654;51.142;14.924;2023-08-06T05:10:02;1.60;;;1.50;;
63499;SDS011;49654;51.142;14.924;2023-08-06T05:12:30;1.40;;;1.30;;
63499;SDS011;49654;51.142;14.924;2023-08-06T05:14:57;1.73;;;1.50;;
63499;SDS011;49654;51.142;14.924;2023-08-06T05:17:24;2.97;;;1.50;;
63499;SDS011;49654;51.142;14.924;2023-08-06T05:19:52;1.98;;;1.25;;
63499;SDS011;49654;51.142;14.924;2023-08-06T05:22:19;1.55;;;1.30;;
63499;SDS011;49654;51.142;14.924;2023-08-06T05:24:46;1.40;;;1.30;;
63499;SDS011;49654;51.142;14.924;2023-08-06T05:27:13;1.48;;;1.38;;
63499;SDS011;49654;51.142;14.924;2023-08-06T05:29:40;2.92;;;1.30;;
63499;SDS011;49654;51.142;14.924;2023-08-06T05:32:07;1.55;;;1.20;;
63499;SDS011;49654;51.142;14.924;2023-08-06T05:34:34;1.10;;;1.10;;
63499;SDS011;49654;51.142;14.924;2023-08-06T05:37:03;3.20;;;1.40;;
63499;SDS011;49654;51.142;14.924;2023-08-06T05:39:30;1.75;;;1.42;;
63499;SDS011;49654;51.142;14.924;2023-08-06T05:41:57;1.40;;;1.30;;
63499;SDS011;49654;51.142;14.924;2023-08-06T05:44:24;1.30;;;1.20;;
63499;SDS011;49654;51.142;14.924;2023-08-06T05:46:51;2.15;;;1.40;;
63499;SDS011;49654;51.142;14.924;2023-08-06T05:49:19;1.33;;;1.23;;
63499;SDS011;49654;51.142;14.924;2023-08-06T05:51:46;1.27;;;1.17;;
63499;SDS011;49654;51.142;14.924;2023-08-06T05:54:15;1.45;;;1.35;;
63499;SDS011;49654;51.142;14.924;2023-08-06T05:56:42;1.50;;;1.40;;
63499;SDS011;49654;51.142;14.924;2023-08-06T05:59:09;1.30;;;1.20;;
63499;SDS011;49654;51.142;14.924;2023-08-06T06:01:36;1.60;;;1.50;;
63499;SDS011;49654;51.142;14.924;2023-08-06T06:04:03;1.65;;;1.55;;
63499;SDS011;49654;51.142;14.924;2023-08-06T06:06:30;1.65;;;1.40;;
63499;SDS011;49654;51.142;14.924;2023-08-06T06:08:57;10.00;;;8.70;;
63499;SDS011;49654;51.142;14.924;2023-08-06T06:11:25;5.20;;;4.55;;
63499;SDS011;49654;51.142;14.924;2023-08-06T06:13:52;3.97;;;2.75;;
63499;SDS011;49654;51.142;14.924;2023-08-06T06:16:20;2.30;;;2.10;;
63499;SDS011;49654;51.142;14.924;2023-08-06T06:18:47;2.33;;;1.90;;
63499;SDS011;49654;51.142;14.924;2023-08-06T06:21:13;1.90;;;1.80;;
63499;SDS011;49654;51.142;14.924;2023-08-06T06:23:41;2.53;;;1.77;;
63499;SDS011;49654;51.142;14.924;2023-08-06T06:26:08;1.55;;;1.45;;
63499;SDS011;49654;51.142;14.924;2023-08-06T06:28:36;1.60;;;1.50;;
63499;SDS011;49654;51.142;14.924;2023-08-06T06:31:03;2.20;;;1.20;;
63499;SDS011;49654;51.142;14.924;2023-08-06T06:33:30;2.17;;;1.50;;
63499;SDS011;49654;51.142;14.924;2023-08-06T06:35:57;1.30;;;1.20;;
63499;SDS011;49654;51.142;14.924;2023-08-06T06:38:24;1.30;;;1.20;;
63499;SDS011;49654;51.142;14.924;2023-08-06T06:40:54;1.27;;;1.17;;
63499;SDS011;49654;51.142;14.924;2023-08-06T06:43:22;1.38;;;1.27;;
63499;SDS011;49654;51.142;14.924;2023-08-06T06:45:53;1.40;;;1.30;;
63499;SDS011;49654;51.142;14.924;2023-08-06T06:48:23;2.58;;;1.45;;
63499;SDS011;49654;51.142;14.924;2023-08-06T06:50:50;1.20;;;1.10;;
63499;SDS011;49654;51.142;14.924;2023-08-06T06:53:18;1.75;;;1.27;;
63499;SDS011;49654;51.142;14.924;2023-08-06T06:55:45;1.30;;;1.20;;
63499;SDS011;49654;51.142;14.924;2023-08-06T06:58:14;4.45;;;1.10;;
63499;SDS011;49654;51.142;14.924;2023-08-06T07:00:42;1.40;;;1.20;;
63499;SDS011;49654;51.142;14.924;2023-08-06T07:03:10;1.65;;;1.30;;
63499;SDS011;49654;51.142;14.924;2023-08-06T07:05:37;2.47;;;1.20;;
63499;SDS011;49654;51.142;14.924;2023-08-06T07:08:04;1.50;;;1.40;;
63499;SDS011;49654;51.142;14.924;2023-08-06T07:10:31;1.30;;;1.20;;
63499;SDS011;49654;51.142;14.924;2023-08-06T07:12:58;1.52;;;1.42;;
63499;SDS011;49654;51.142;14.924;2023-08-06T07:15:26;1.55;;;1.45;;
63499;SDS011;49654;51.142;14.924;2023-08-06T07:17:53;1.48;;;1.38;;
63499;SDS011;49654;51.142;14.924;2023-08-06T07:20:21;1.42;;;1.33;;
63499;SDS011;49654;51.142;14.924;2023-08-06T07:22:48;2.17;;;1.50;;
63499;SDS011;49654;51.142;14.924;2023-08-06T07:25:15;1.90;;;1.70;;
63499;SDS011;49654;51.142;14.924;2023-08-06T07:27:43;1.50;;;1.40;;
63499;SDS011;49654;51.142;14.924;2023-08-06T07:30:10;1.30;;;1.20;;
63499;SDS011;49654;51.142;14.924;2023-08-06T07:32:37;1.15;;;1.15;;
63499;SDS011;49654;51.142;14.924;2023-08-06T07:35:04;1.20;;;1.17;;
63499;SDS011;49654;51.142;14.924;2023-08-06T07:37:35;1.30;;;1.20;;
63499;SDS011;49654;51.142;14.924;2023-08-06T07:40:02;1.30;;;1.20;;
63499;SDS011;49654;51.142;14.924;2023-08-06T07:42:30;1.30;;;1.20;;
63499;SDS011;49654;51.142;14.924;2023-08-06T07:44:57;1.20;;;1.20;;
63499;SDS011;49654;51.142;14.924;2023-08-06T07:47:25;1.50;;;1.40;;
63499;SDS011;49654;51.142;14.924;2023-08-06T07:49:52;1.40;;;1.30;;
63499;SDS011;49654;51.142;14.924;2023-08-06T07:52:19;1.60;;;1.40;;
63499;SDS011;49654;51.142;14.924;2023-08-06T07:54:47;1.33;;;1.23;;
63499;SDS011;49654;51.142;14.924;2023-08-06T07:57:15;1.00;;;1.00;;
63499;SDS011;49654;51.142;14.924;2023-08-06T07:59:42;1.15;;;1.05;;
63499;SDS011;49654;51.142;14.924;2023-08-06T08:02:09;1.20;;;1.10;;
63499;SDS011;49654;51.142;14.924;2023-08-06T08:04:36;1.02;;;1.00;;
63499;SDS011;49654;51.142;14.924;2023-08-06T08:07:03;1.83;;;1.30;;
63499;SDS011;49654;51.142;14.924;2023-08-06T08:09:31;1.35;;;1.25;;
63499;SDS011;49654;51.142;14.924;2023-08-06T08:11:59;1.50;;;1.40;;
63499;SDS011;49654;51.142;14.924;2023-08-06T08:14:28;1.38;;;1.27;;
63499;SDS011;49654;51.142;14.924;2023-08-06T08:17:00;1.42;;;1.33;;
63499;SDS011;49654;51.142;14.924;2023-08-06T08:19:28;1.60;;;1.50;;
63499;SDS011;49654;51.142;14.924;2023-08-06T08:21:55;1.60;;;1.50;;
63499;SDS011;49654;51.142;14.924;2023-08-06T08:24:22;2.00;;;1.80;;
63499;SDS011;49654;51.142;14.924;2023-08-06T08:26:50;1.90;;;1.80;;
63499;SDS011;49654;51.142;14.924;2023-08-06T08:29:19;3.95;;;1.75;;
63499;SDS011;49654;51.142;14.924;2023-08-06T08:31:46;12.52;;;2.50;;
63499;SDS011;49654;51.142;14.924;2023-08-06T08:34:14;2.38;;;2.00;;
63499;SDS011;49654;51.142;14.924;2023-08-06T08:36:41;1.40;;;1.30;;
63499;SDS011;49654;51.142;14.924;2023-08-06T08:39:08;1.55;;;1.45;;
63499;SDS011;49654;51.142;14.924;2023-08-06T08:41:36;1.70;;;1.60;;
63499;SDS011;49654;51.142;14.924;2023-08-06T08:44:04;1.60;;;1.50;;
63499;SDS011;49654;51.142;14.924;2023-08-06T08:46:38;2.28;;;1.63;;
63499;SDS011;49654;51.142;14.924;2023-08-06T08:49:07;1.77;;;1.67;;
63499;SDS011;49654;51.142;14.924;2023-08-06T08:51:35;1.70;;;1.60;;
63499;SDS011;49654;51.142;14.924;2023-08-06T08:54:03;1.67;;;1.58;;
63499;SDS011;49654;51.142;14.924;2023-08-06T08:56:31;1.75;;;1.60;;
63499;SDS011;49654;51.142;14.924;2023-08-06T08:58:58;1.60;;;1.50;;
63499;SDS011;49654;51.142;14.924;2023-08-06T09:01:25;1.50;;;1.40;;
63499;SDS011;49654;51.142;14.924;2023-08-06T09:03:55;4.20;;;1.67;;
63499;SDS011;49654;51.142;14.924;2023-08-06T09:06:23;3.03;;;1.77;;
63499;SDS011;49654;51.142;14.924;2023-08-06T09:08:54;1.73;;;1.63;;
63499;SDS011;49654;51.142;14.924;2023-08-06T09:11:27;2.10;;;1.90;;
63499;SDS011;49654;51.142;14.924;2023-08-06T09:14:03;2.95;;;2.30;;
63499;SDS011;49654;51.142;14.924;2023-08-06T09:16:33;2.35;;;2.10;;
63499;SDS011;49654;51.142;14.924;2023-08-06T09:19:07;2.25;;;2.10;;
63499;SDS011;49654;51.142;14.924;2023-08-06T09:21:36;2.10;;;2.00;;
63499;SDS011;49654;51.142;14.924;2023-08-06T09:24:06;2.25;;;1.80;;
63499;SDS011;49654;51.142;14.924;2023-08-06T09:26:34;2.60;;;2.40;;
63499;SDS011;49654;51.142;14.924;2023-08-06T09:29:01;2.40;;;2.20;;
63499;SDS011;49654;51.142;14.924;2023-08-06T09:31:32;3.45;;;2.40;;
63499;SDS011;49654;51.142;14.924;2023-08-06T09:34:00;2.40;;;2.20;;
63499;SDS011;49654;51.142;14.924;2023-08-06T09:36:29;2.60;;;2.40;;
63499;SDS011;49654;51.142;14.924;2023-08-06T09:38:56;3.00;;;2.80;;
63499;SDS011;49654;51.142;14.924;2023-08-06T09:41:26;3.20;;;2.90;;
63499;SDS011;49654;51.142;14.924;2023-08-06T09:43:54;3.15;;;2.95;;
63499;SDS011;49654;51.142;14.924;2023-08-06T09:46:21;3.60;;;3.30;;
63499;SDS011;49654;51.142;14.924;2023-08-06T09:48:48;3.50;;;3.20;;
63499;SDS011;49654;51.142;14.924;2023-08-06T09:51:17;3.90;;;3.38;;
63499;SDS011;49654;51.142;14.924;2023-08-06T09:53:45;3.88;;;3.47;;
63499;SDS011;49654;51.142;14.924;2023-08-06T09:56:16;4.85;;;4.20;;
63499;SDS011;49654;51.142;14.924;2023-08-06T09:58:44;6.45;;;5.85;;
63499;SDS011;49654;51.142;14.924;2023-08-06T10:01:14;5.85;;;5.35;;
63499;SDS011;49654;51.142;14.924;2023-08-06T10:03:43;4.72;;;4.32;;
63499;SDS011;49654;51.142;14.924;2023-08-06T10:06:10;4.25;;;3.53;;
63499;SDS011;49654;51.142;14.924;2023-08-06T10:08:38;3.90;;;3.60;;
63499;SDS011;49654;51.142;14.924;2023-08-06T10:11:08;4.10;;;3.80;;
63499;SDS011;49654;51.142;14.924;2023-08-06T10:13:36;5.32;;;3.75;;
63499;SDS011;49654;51.142;14.924;2023-08-06T10:16:04;3.97;;;3.65;;
63499;SDS011;49654;51.142;14.924;2023-08-06T10:18:31;4.35;;;3.90;;
63499;SDS011;49654;51.142;14.924;2023-08-06T10:21:00;5.07;;;4.50;;
63499;SDS011;49654;51.142;14.924;2023-08-06T10:23:32;4.90;;;4.50;;
63499;SDS011;49654;51.142;14.924;2023-08-06T10:26:01;4.22;;;3.92;;
63499;SDS011;49654;51.142;14.924;2023-08-06T10:28:35;4.63;;;4.22;;
63499;SDS011;49654;51.142;14.924;2023-08-06T10:31:03;4.32;;;4.03;;
63499;SDS011;49654;51.142;14.924;2023-08-06T10:33:41;4.88;;;4.47;;
63499;SDS011;49654;51.142;14.924;2023-08-06T10:36:09;4.57;;;4.18;;
63499;SDS011;49654;51.142;14.924;2023-08-06T10:38:44;4.82;;;4.40;;
63499;SDS011;49654;51.142;14.924;2023-08-06T10:41:15;4.43;;;4.03;;
63499;SDS011;49654;51.142;14.924;2023-08-06T10:43:45;4.80;;;4.40;;
63499;SDS011;49654;51.142;14.924;2023-08-06T10:46:21;4.57;;;4.18;;
63499;SDS011;49654;51.142;14.924;2023-08-06T10:48:49;4.68;;;4.10;;
63499;SDS011;49654;51.142;14.924;2023-08-06T10:51:17;4.78;;;4.38;;
63499;SDS011;49654;51.142;14.924;2023-08-06T10:53:44;6.05;;;4.63;;
63499;SDS011;49654;51.142;14.924;2023-08-06T10:56:13;4.90;;;4.13;;
63499;SDS011;49654;51.142;14.924;2023-08-06T10:58:40;4.20;;;3.90;;
63499;SDS011;49654;51.142;14.924;2023-08-06T11:01:09;4.30;;;4.00;;
63499;SDS011;49654;51.142;14.924;2023-08-06T11:03:37;4.35;;;4.05;;
63499;SDS011;49654;51.142;14.924;2023-08-06T11:06:06;4.60;;;4.20;;
63499;SDS011;49654;51.142;14.924;2023-08-06T11:08:34;4.82;;;4.43;;
63499;SDS011;49654;51.142;14.924;2023-08-06T11:11:08;5.15;;;4.65;;
63499;SDS011;49654;51.142;14.924;2023-08-06T11:13:38;5.22;;;4.65;;
63499;SDS011;49654;51.142;14.924;2023-08-06T11:16:05;5.65;;;4.60;;
63499;SDS011;49654;51.142;14.924;2023-08-06T11:18:34;4.88;;;4.50;;
63499;SDS011;49654;51.142;14.924;2023-08-06T11:21:02;4.60;;;4.20;;
63499;SDS011;49654;51.142;14.924;2023-08-06T11:23:29;7.20;;;4.38;;
63499;SDS011;49654;51.142;14.924;2023-08-06T11:25:57;4.75;;;4.35;;
63499;SDS011;49654;51.142;14.924;2023-08-06T11:28:24;5.50;;;5.10;;
63499;SDS011;49654;51.142;14.924;2023-08-06T11:30:51;5.95;;;5.07;;
63499;SDS011;49654;51.142;14.924;2023-08-06T11:33:20;8.27;;;4.88;;
63499;SDS011;49654;51.142;14.924;2023-08-06T11:35:49;9.40;;;4.75;;
63499;SDS011;49654;51.142;14.924;2023-08-06T11:38:16;5.75;;;4.88;;
63499;SDS011;49654;51.142;14.924;2023-08-06T11:40:44;4.50;;;4.13;;
63499;SDS011;49654;51.142;14.924;2023-08-06T11:43:11;8.00;;;5.50;;
63499;SDS011;49654;51.142;14.924;2023-08-06T11:45:38;4.18;;;3.88;;
63499;SDS011;49654;51.142;14.924;2023-08-06T11:48:06;6.07;;;4.55;;
63499;SDS011;49654;51.142;14.924;2023-08-06T11:50:36;4.63;;;4.22;;
63499;SDS011;49654;51.142;14.924;2023-08-06T11:53:05;5.40;;;4.90;;
63499;SDS011;49654;51.142;14.924;2023-08-06T11:55:32;15.73;;;14.45;;
63499;SDS011;49654;51.142;14.924;2023-08-06T11:58:02;4.30;;;3.80;;
63499;SDS011;49654;51.142;14.924;2023-08-06T12:00:30;10.32;;;9.43;;
63499;SDS011;49654;51.142;14.924;2023-08-06T12:02:57;11.93;;;10.48;;
63499;SDS011;49654;51.142;14.924;2023-08-06T12:05:29;6.13;;;5.63;;
63499;SDS011;49654;51.142;14.924;2023-08-06T12:07:59;4.47;;;4.07;;
63499;SDS011;49654;51.142;14.924;2023-08-06T12:10:29;5.43;;;4.97;;
63499;SDS011;49654;51.142;14.924;2023-08-06T12:12:56;5.00;;;4.50;;
63499;SDS011;49654;51.142;14.924;2023-08-06T12:15:23;5.22;;;4.72;;
63499;SDS011;49654;51.142;14.924;2023-08-06T12:17:50;4.65;;;4.25;;
63499;SDS011;49654;51.142;14.924;2023-08-06T12:20:17;4.75;;;4.25;;
63499;SDS011;49654;51.142;14.924;2023-08-06T12:22:44;4.90;;;4.50;;
63499;SDS011;49654;51.142;14.924;2023-08-06T12:25:12;4.35;;;4.00;;
63499;SDS011;49654;51.142;14.924;2023-08-06T12:27:42;5.38;;;4.10;;
63499;SDS011;49654;51.142;14.924;2023-08-06T12:30:10;3.78;;;3.47;;
63499;SDS011;49654;51.142;14.924;2023-08-06T12:32:38;5.15;;;4.18;;
63499;SDS011;49654;51.142;14.924;2023-08-06T12:35:05;4.38;;;3.70;;
63499;SDS011;49654;51.142;14.924;2023-08-06T12:37:33;4.93;;;4.13;;
63499;SDS011;49654;51.142;14.924;2023-08-06T12:40:00;4.32;;;3.83;;
63499;SDS011;49654;51.142;14.924;2023-08-06T12:42:27;4.18;;;3.83;;
63499;SDS011;49654;51.142;14.924;2023-08-06T12:44:56;4.30;;;3.90;;
63499;SDS011;49654;51.142;14.924;2023-08-06T12:47:23;3.97;;;3.67;;
63499;SDS011;49654;51.142;14.924;2023-08-06T12:49:50;4.75;;;3.65;;
63499;SDS011;49654;51.142;14.924;2023-08-06T12:52:17;4.68;;;3.83;;
63499;SDS011;49654;51.142;14.924;2023-08-06T12:54:45;4.18;;;3.45;;
63499;SDS011;49654;51.142;14.924;2023-08-06T12:57:12;3.85;;;3.55;;
63499;SDS011;49654;51.142;14.924;2023-08-06T12:59:39;3.80;;;3.50;;
63499;SDS011;49654;51.142;14.924;2023-08-06T13:02:08;3.45;;;3.10;;
63499;SDS011;49654;51.142;14.924;2023-08-06T13:04:34;3.78;;;3.47;;
63499;SDS011;49654;51.142;14.924;2023-08-06T13:07:01;3.60;;;3.30;;
63499;SDS011;49654;51.142;14.924;2023-08-06T13:09:28;3.40;;;3.05;;
63499;SDS011;49654;51.142;14.924;2023-08-06T13:11:56;3.67;;;3.38;;
63499;SDS011;49654;51.142;14.924;2023-08-06T13:14:23;3.90;;;3.50;;
63499;SDS011;49654;51.142;14.924;2023-08-06T13:16:50;5.68;;;3.90;;
63499;SDS011;49654;51.142;14.924;2023-08-06T13:19:18;3.70;;;3.40;;
63499;SDS011;49654;51.142;14.924;2023-08-06T13:21:58;7.03;;;3.75;;
63499;SDS011;49654;51.142;14.924;2023-08-06T13:24:27;4.15;;;3.65;;
63499;SDS011;49654;51.142;14.924;2023-08-06T13:26:54;3.92;;;3.55;;
63499;SDS011;49654;51.142;14.924;2023-08-06T13:29:21;4.03;;;3.60;;
63499;SDS011;49654;51.142;14.924;2023-08-06T13:31:48;3.22;;;2.97;;
63499;SDS011;49654;51.142;14.924;2023-08-06T13:34:15;5.15;;;4.28;;
63499;SDS011;49654;51.142;14.924;2023-08-06T13:36:44;4.63;;;3.78;;
63499;SDS011;49654;51.142;14.924;2023-08-06T13:39:11;3.97;;;3.67;;
63499;SDS011;49654;51.142;14.924;2023-08-06T13:41:38;4.40;;;3.63;;
63499;SDS011;49654;51.142;14.924;2023-08-06T13:44:06;4.38;;;3.75;;
63499;SDS011;49654;51.142;14.924;2023-08-06T13:46:33;4.28;;;3.88;;
63499;SDS011;49654;51.142;14.924;2023-08-06T13:49:00;5.18;;;3.88;;
63499;SDS011;49654;51.142;14.924;2023-08-06T13:51:27;4.90;;;3.90;;
63499;SDS011;49654;51.142;14.924;2023-08-06T13:53:55;5.18;;;3.95;;
63499;SDS011;49654;51.142;14.924;2023-08-06T13:56:23;4.53;;;4.13;;
63499;SDS011;49654;51.142;14.924;2023-08-06T13:58:50;5.47;;;4.18;;
63499;SDS011;49654;51.142;14.924;2023-08-06T14:01:17;4.30;;;3.90;;
63499;SDS011;49654;51.142;14.924;2023-08-06T14:03:45;4.38;;;4.07;;
63499;SDS011;49654;51.142;14.924;2023-08-06T14:06:12;4.20;;;3.90;;
63499;SDS011;49654;51.142;14.924;2023-08-06T14:08:38;4.32;;;3.92;;
63499;SDS011;49654;51.142;14.924;2023-08-06T14:11:07;5.05;;;4.15;;
63499;SDS011;49654;51.142;14.924;2023-08-06T14:13:34;4.47;;;4.07;;
63499;SDS011;49654;51.142;14.924;2023-08-06T14:16:01;4.07;;;3.75;;
63499;SDS011;49654;51.142;14.924;2023-08-06T14:18:28;4.90;;;4.03;;
63499;SDS011;49654;51.142;14.924;2023-08-06T14:20:55;5.55;;;4.13;;
63499;SDS011;49654;51.142;14.924;2023-08-06T14:23:22;4.93;;;4.43;;
63499;SDS011;49654;51.142;14.924;2023-08-06T14:25:49;5.20;;;4.70;;
63499;SDS011;49654;51.142;14.924;2023-08-06T14:28:17;4.88;;;4.47;;
63499;SDS011;49654;51.142;14.924;2023-08-06T14:30:44;6.07;;;4.82;;
63499;SDS011;49654;51.142;14.924;2023-08-06T14:33:11;4.72;;;4.32;;
63499;SDS011;49654;51.142;14.924;2023-08-06T14:35:38;4.93;;;4.55;;
63499;SDS011;49654;51.142;14.924;2023-08-06T14:38:05;5.40;;;4.90;;